METAR AND TAF INFORMATION
METAR FOR LEDA
ADDS - METARS form results

(0230 UTC 25 September 2022)
Data provider http://aviationweather.gov/metar/data/
 
METAR text: LEDA 250200Z AUTO 21006KT CAVOK 13/10 Q1013
Conditions at: LEDA (LLEIDA-ALGUAIRE , ES) observed 0200 UTC 25 September 2022
Temperature: 13.0°C (55°F)
Dewpoint: 10.0°C (50°F) [RH = 82%]
Pressure (altimeter): 29.91 inches Hg (1013.0 mb)
Winds: from the SSW (210 degrees) at 7 MPH (6 knots; 3.1 m/s)
Visibility: 6 or more miles (10+ km)
Ceiling: ceiling and visibility are OK
Clouds: unknown
Weather: no significant weather observed at this time

 AIRPORT MAP

 RUNWAY INFORMATION

 AIRPORT FREQUENCIES

 AIRPORT NEAR NAVIGATION AIDS